createdAt,value
2023-04-28T00:00:09.759Z,79.10
2023-04-28T00:02:55.150Z,79.90
2023-04-28T00:05:41.201Z,79.20
2023-04-28T00:08:27.266Z,78.90
2023-04-28T00:11:12.577Z,79.00
2023-04-28T00:13:57.841Z,79.40
2023-04-28T00:16:43.361Z,79.30
2023-04-28T00:19:29.073Z,80.30
2023-04-28T00:22:15.172Z,80.60
2023-04-28T00:25:00.563Z,80.10
2023-04-28T00:27:45.831Z,80.10
2023-04-28T00:30:31.612Z,80.90
2023-04-28T00:33:16.727Z,80.70
2023-04-28T00:36:02.093Z,81.40
2023-04-28T00:38:47.498Z,80.40
2023-04-28T00:41:34.776Z,80.90
2023-04-28T00:44:19.763Z,80.80
2023-04-28T00:47:05.623Z,81.20
2023-04-28T00:49:50.704Z,80.80
2023-04-28T00:52:38.250Z,80.90
2023-04-28T00:55:26.312Z,80.80
2023-04-28T00:58:11.304Z,81.60
2023-04-28T01:01:07.978Z,81.40
2023-04-28T01:03:53.689Z,81.50
2023-04-28T01:06:39.762Z,81.60
2023-04-28T01:09:25.327Z,81.70
2023-04-28T01:12:10.705Z,81.50
2023-04-28T01:14:56.194Z,81.50
2023-04-28T01:17:41.654Z,81.20
2023-04-28T01:20:26.776Z,81.30
2023-04-28T01:23:16.577Z,80.50
2023-04-28T01:26:01.866Z,80.40
2023-04-28T01:28:47.264Z,80.80
2023-04-28T01:31:32.527Z,81.00
2023-04-28T01:34:18.200Z,80.70
2023-04-28T01:37:03.894Z,80.50
2023-04-28T01:39:49.267Z,80.50
2023-04-28T01:42:34.725Z,80.60
2023-04-28T01:45:20.138Z,80.60
2023-04-28T01:48:05.750Z,80.40
2023-04-28T01:50:50.960Z,80.30
2023-04-28T01:53:36.240Z,81.10
2023-04-28T01:56:21.744Z,80.80
2023-04-28T01:59:07.238Z,80.50
2023-04-28T02:01:52.546Z,80.10
2023-04-28T02:04:39.025Z,80.40
2023-04-28T02:07:24.398Z,80.50
2023-04-28T02:10:10.153Z,80.40
2023-04-28T02:12:55.260Z,80.20
2023-04-28T02:15:44.222Z,80.40
2023-04-28T02:18:29.686Z,79.70
2023-04-28T02:21:14.961Z,80.10
2023-04-28T02:24:00.456Z,79.60
2023-04-28T02:26:45.896Z,79.40
2023-04-28T02:29:31.873Z,79.50
2023-04-28T02:32:17.083Z,78.60
2023-04-28T02:35:02.407Z,78.30
2023-04-28T02:37:47.964Z,78.80
2023-04-28T02:40:33.249Z,79.00
2023-04-28T02:43:19.381Z,78.80
2023-04-28T02:46:05.245Z,78.90
2023-04-28T02:48:50.472Z,78.00
2023-04-28T02:51:35.917Z,78.10
2023-04-28T02:54:27.581Z,77.70
2023-04-28T02:57:12.509Z,78.10
2023-04-28T02:59:57.874Z,77.80
2023-04-28T03:02:43.250Z,77.40
2023-04-28T03:05:28.560Z,77.20
2023-04-28T03:08:14.126Z,77.60
2023-04-28T03:10:59.479Z,77.80
2023-04-28T03:13:44.890Z,77.40
2023-04-28T03:16:30.319Z,77.70
2023-04-28T03:19:15.888Z,77.60
2023-04-28T03:22:01.440Z,78.20
2023-04-28T03:24:46.800Z,78.20
2023-04-28T03:27:32.215Z,78.20
2023-04-28T03:30:17.635Z,78.10
2023-04-28T03:33:02.993Z,78.10
2023-04-28T03:35:48.396Z,78.00
2023-04-28T03:38:33.735Z,77.90
2023-04-28T03:41:19.113Z,77.50
2023-04-28T03:44:05.592Z,77.60
2023-04-28T03:46:51.102Z,77.50
2023-04-28T03:49:36.514Z,77.60
2023-04-28T03:52:21.836Z,77.70
2023-04-28T03:55:07.464Z,77.60
2023-04-28T03:57:53.140Z,77.80
2023-04-28T04:00:38.262Z,77.80
2023-04-28T04:03:26.485Z,77.90
2023-04-28T04:06:12.561Z,78.00
2023-04-28T04:08:57.722Z,77.80
2023-04-28T04:11:43.133Z,77.60
2023-04-28T04:14:28.533Z,77.30
2023-04-28T04:17:14.011Z,77.40
2023-04-28T04:19:59.442Z,77.60
2023-04-28T04:22:44.797Z,77.30
2023-04-28T04:25:32.279Z,77.80
2023-04-28T04:28:17.503Z,78.10
2023-04-28T04:31:03.449Z,77.80
2023-04-28T04:33:48.806Z,77.30
2023-04-28T04:36:34.007Z,77.30
2023-04-28T04:39:19.293Z,77.20
2023-04-28T04:42:16.849Z,77.10
2023-04-28T04:45:09.428Z,77.00
2023-04-28T04:47:54.809Z,77.00
2023-04-28T04:50:41.084Z,76.80
2023-04-28T04:53:26.750Z,77.30
2023-04-28T04:56:12.225Z,77.30
2023-04-28T04:58:57.883Z,76.90
2023-04-28T05:01:43.417Z,77.00
2023-04-28T05:04:29.090Z,77.30
2023-04-28T05:07:14.644Z,77.30
2023-04-28T05:10:00.565Z,77.00
2023-04-28T05:12:48.335Z,77.10
2023-04-28T05:15:34.792Z,77.40
2023-04-28T05:18:20.144Z,77.10
2023-04-28T05:21:06.362Z,76.80
2023-04-28T05:23:52.453Z,77.10
2023-04-28T05:26:37.829Z,77.50
2023-04-28T05:29:23.282Z,77.30
2023-04-28T05:32:08.659Z,77.40
2023-04-28T05:34:53.898Z,77.20
2023-04-28T05:37:40.030Z,77.50
2023-04-28T05:40:26.334Z,78.70
2023-04-28T05:43:12.039Z,79.90
2023-04-28T05:45:57.341Z,80.40
2023-04-28T05:48:42.751Z,80.50
2023-04-28T05:51:28.408Z,80.50
2023-04-28T05:54:13.865Z,80.90
2023-04-28T05:57:01.317Z,81.00
2023-04-28T05:59:47.036Z,80.90
2023-04-28T06:02:32.632Z,81.00
2023-04-28T06:05:18.251Z,81.60
2023-04-28T06:08:03.790Z,81.20
2023-04-28T06:10:49.253Z,81.80
2023-04-28T06:13:34.600Z,80.90
2023-04-28T06:16:20.331Z,80.90
2023-04-28T06:19:05.967Z,81.00
2023-04-28T06:21:52.680Z,82.30
2023-04-28T06:24:38.069Z,80.40
2023-04-28T06:27:23.434Z,81.10
2023-04-28T06:30:09.243Z,81.30
2023-04-28T06:32:56.075Z,81.10
2023-04-28T06:35:41.478Z,81.40
2023-04-28T06:38:27.262Z,80.80
2023-04-28T06:41:12.443Z,81.30
2023-04-28T06:43:57.702Z,80.70
2023-04-28T06:46:43.205Z,81.00
2023-04-28T06:49:28.405Z,81.30
2023-04-28T06:52:14.671Z,81.00
2023-04-28T06:54:59.708Z,80.30
2023-04-28T06:57:45.143Z,80.40
2023-04-28T07:00:30.784Z,80.70
2023-04-28T07:03:16.055Z,81.30
2023-04-28T07:06:01.384Z,81.40
2023-04-28T07:08:46.877Z,81.20
2023-04-28T07:11:33.464Z,81.60
2023-04-28T07:14:18.954Z,81.60
2023-04-28T07:17:04.164Z,81.30
2023-04-28T07:19:50.912Z,81.20
2023-04-28T07:22:36.701Z,81.80
2023-04-28T07:25:22.129Z,81.40
2023-04-28T07:28:08.051Z,81.10
2023-04-28T07:30:53.055Z,81.20
2023-04-28T07:33:38.362Z,81.70
2023-04-28T07:36:23.727Z,82.90
2023-04-28T07:39:09.106Z,83.00
2023-04-28T07:41:54.574Z,84.40
2023-04-28T07:44:40.106Z,83.70
2023-04-28T07:47:25.504Z,84.20
2023-04-28T07:50:12.192Z,83.70
2023-04-28T07:52:59.055Z,84.20
2023-04-28T07:55:45.823Z,85.10
2023-04-28T07:58:31.594Z,85.60
2023-04-28T08:01:16.851Z,85.90
2023-04-28T08:04:02.505Z,85.80
2023-04-28T08:06:47.636Z,87.20
2023-04-28T08:09:33.153Z,89.80
2023-04-28T08:12:18.611Z,88.60
2023-04-28T08:15:04.509Z,88.70
2023-04-28T08:17:49.976Z,90.10
2023-04-28T08:20:35.288Z,90.50
2023-04-28T08:23:21.338Z,90.20
2023-04-28T08:26:06.657Z,90.50
2023-04-28T08:28:52.823Z,90.70
2023-04-28T08:31:38.586Z,91.60
2023-04-28T08:34:23.862Z,91.10
2023-04-28T08:37:09.184Z,91.70
2023-04-28T08:40:01.928Z,91.90
2023-04-28T08:42:47.424Z,92.10
2023-04-28T08:45:41.135Z,92.60
2023-04-28T08:48:27.935Z,92.40
2023-04-28T08:51:25.698Z,92.70
2023-04-28T08:54:25.590Z,92.80
2023-04-28T08:57:12.696Z,93.40
2023-04-28T08:59:59.030Z,93.10
2023-04-28T09:02:44.569Z,93.20
2023-04-28T09:05:30.646Z,94.00
2023-04-28T09:08:15.980Z,94.00
2023-04-28T09:11:09.247Z,94.10
2023-04-28T09:14:12.509Z,94.10
2023-04-28T09:16:57.759Z,94.70
2023-04-28T09:19:43.560Z,94.40
2023-04-28T09:22:29.472Z,94.80
2023-04-28T09:25:16.060Z,94.70
2023-04-28T09:28:21.983Z,94.90
2023-04-28T09:31:23.796Z,94.70
2023-04-28T09:34:09.217Z,94.70
2023-04-28T09:36:54.653Z,95.10
2023-04-28T09:39:40.007Z,95.20
2023-04-28T09:42:36.359Z,95.90
2023-04-28T09:45:21.477Z,96.30
2023-04-28T09:48:13.111Z,95.70
2023-04-28T09:50:59.607Z,96.20
2023-04-28T09:53:45.473Z,96.00
2023-04-28T09:56:32.258Z,96.10
2023-04-28T09:59:17.889Z,96.20
2023-04-28T10:02:17.310Z,96.50
2023-04-28T10:05:11.612Z,96.60
2023-04-28T10:08:00.172Z,96.90
2023-04-28T10:10:45.864Z,96.90
2023-04-28T10:13:32.575Z,96.90
2023-04-28T10:16:18.508Z,97.00
2023-04-28T10:19:05.274Z,96.40
2023-04-28T10:22:03.990Z,96.80
2023-04-28T10:25:11.827Z,97.80
2023-04-28T10:27:59.411Z,98.10
2023-04-28T10:31:13.728Z,98.50
2023-04-28T10:34:22.297Z,97.90
2023-04-28T10:37:07.676Z,98.30
2023-04-28T10:40:31.815Z,98.30
2023-04-28T10:43:26.492Z,97.40
2023-04-28T10:46:12.007Z,98.10
2023-04-28T10:48:57.596Z,98.20
2023-04-28T10:51:42.696Z,98.20
2023-04-28T10:54:28.310Z,97.90
2023-04-28T10:57:18.175Z,98.20
2023-04-28T11:00:40.003Z,98.00
2023-04-28T11:04:13.366Z,98.30
2023-04-28T11:07:14.522Z,98.60
2023-04-28T11:09:59.655Z,98.30
2023-04-28T11:13:24.419Z,98.40
2023-04-28T11:16:09.894Z,98.60
2023-04-28T11:19:03.856Z,98.80
2023-04-28T11:21:49.655Z,98.60
2023-04-28T11:24:34.947Z,99.10
2023-04-28T11:27:25.206Z,99.20
2023-04-28T11:30:31.232Z,99.70
2023-04-28T11:33:16.940Z,99.90
2023-04-28T11:36:02.257Z,99.90
2023-04-28T11:38:49.018Z,99.90
2023-04-28T11:41:36.125Z,99.90
2023-04-28T11:44:25.024Z,99.90
2023-04-28T11:47:10.339Z,99.90
2023-04-28T11:49:55.704Z,99.90
2023-04-28T11:52:53.270Z,99.90
2023-04-28T11:55:39.280Z,99.90
2023-04-28T11:58:25.298Z,99.90
2023-04-28T12:01:12.136Z,99.90
2023-04-28T12:03:57.564Z,99.90
2023-04-28T12:06:43.081Z,99.90
2023-04-28T12:09:28.234Z,99.90
2023-04-28T12:12:18.346Z,99.90
2023-04-28T12:15:08.146Z,99.90
2023-04-28T12:17:53.361Z,99.90
2023-04-28T12:20:39.489Z,99.90
2023-04-28T12:23:34.864Z,99.90
2023-04-28T12:26:26.552Z,99.90
2023-04-28T12:29:35.402Z,99.90
2023-04-28T12:32:37.130Z,99.90
2023-04-28T12:35:23.804Z,99.90
2023-04-28T12:38:11.762Z,99.90
2023-04-28T12:40:57.462Z,99.90
2023-04-28T12:43:44.542Z,99.90
2023-04-28T12:46:31.634Z,99.90
2023-04-28T12:49:17.325Z,99.90
2023-04-28T12:52:03.534Z,99.90
2023-04-28T12:54:49.328Z,99.90
2023-04-28T12:57:38.950Z,99.90
2023-04-28T13:00:25.163Z,99.90
2023-04-28T13:03:10.900Z,99.90
2023-04-28T13:05:56.303Z,99.90
2023-04-28T13:08:41.839Z,99.90
2023-04-28T13:11:28.045Z,99.90
2023-04-28T13:14:13.121Z,99.90
2023-04-28T13:16:58.846Z,99.90
2023-04-28T13:19:44.238Z,99.90
2023-04-28T13:22:29.789Z,99.90
2023-04-28T13:25:15.230Z,99.90
2023-04-28T13:28:00.750Z,99.90
2023-04-28T13:30:46.268Z,99.90
2023-04-28T13:33:31.531Z,99.90
2023-04-28T13:36:17.085Z,99.90
2023-04-28T13:39:02.739Z,99.90
2023-04-28T13:41:49.508Z,99.90
2023-04-28T13:44:35.024Z,99.90
2023-04-28T13:47:20.358Z,99.90
2023-04-28T13:50:06.185Z,99.90
2023-04-28T13:52:51.902Z,99.90
2023-04-28T13:55:37.660Z,99.90
2023-04-28T13:58:23.227Z,99.90
2023-04-28T14:01:09.025Z,99.90
2023-04-28T14:03:54.847Z,99.90
2023-04-28T14:06:39.995Z,99.90
2023-04-28T14:09:25.609Z,99.90
2023-04-28T14:12:11.155Z,99.90
2023-04-28T14:14:56.958Z,99.90
2023-04-28T14:17:43.343Z,99.90
2023-04-28T14:20:29.115Z,99.90
2023-04-28T14:23:15.439Z,99.90
2023-04-28T14:26:00.647Z,99.90
2023-04-28T14:28:45.992Z,99.90
2023-04-28T14:31:31.802Z,99.90
2023-04-28T14:34:17.082Z,99.90
2023-04-28T14:37:02.441Z,99.90
2023-04-28T14:39:48.638Z,99.90
2023-04-28T14:42:38.656Z,99.90
2023-04-28T14:45:23.898Z,99.90
2023-04-28T14:48:10.597Z,99.90
2023-04-28T14:50:56.058Z,99.90
2023-04-28T14:53:42.044Z,99.90
2023-04-28T14:56:27.578Z,99.90
2023-04-28T14:59:12.589Z,99.90
2023-04-28T15:01:58.678Z,99.90
2023-04-28T15:04:44.684Z,99.90
2023-04-28T15:07:31.576Z,99.90
2023-04-28T15:10:17.815Z,99.90
2023-04-28T15:13:02.937Z,99.90
2023-04-28T15:15:48.891Z,99.90
2023-04-28T15:18:34.259Z,99.90
2023-04-28T15:21:19.729Z,99.90
2023-04-28T15:24:05.183Z,99.90
2023-04-28T15:26:50.607Z,99.90
2023-04-28T15:29:36.159Z,99.90
2023-04-28T15:32:21.522Z,99.90
2023-04-28T15:35:07.306Z,99.90
2023-04-28T15:37:53.252Z,99.90
2023-04-28T15:40:40.498Z,99.90
2023-04-28T15:43:26.360Z,99.90
2023-04-28T15:46:14.486Z,99.90
2023-04-28T15:48:59.931Z,99.90
2023-04-28T15:51:45.695Z,99.90
2023-04-28T15:54:30.915Z,99.90
2023-04-28T15:57:15.973Z,99.90
2023-04-28T16:00:01.940Z,99.90
2023-04-28T16:02:47.154Z,99.90
2023-04-28T16:05:32.480Z,99.90
2023-04-28T16:08:19.379Z,99.90
2023-04-28T16:11:05.305Z,99.90
2023-04-28T16:13:51.335Z,99.90
2023-04-28T16:16:36.708Z,99.90
2023-04-28T16:19:22.244Z,99.90
2023-04-28T16:22:07.215Z,99.90
2023-04-28T16:24:53.696Z,99.90
2023-04-28T16:27:40.499Z,99.90
2023-04-28T16:30:26.277Z,99.90
2023-04-28T16:33:11.799Z,99.90
2023-04-28T16:35:58.254Z,99.90
2023-04-28T16:38:45.739Z,99.90
2023-04-28T16:41:31.619Z,99.90
2023-04-28T16:44:17.039Z,99.90
2023-04-28T16:47:02.717Z,99.90
2023-04-28T16:49:48.292Z,99.90
2023-04-28T16:52:34.290Z,99.90
2023-04-28T16:55:20.040Z,99.90
2023-04-28T16:58:06.315Z,99.90
2023-04-28T17:00:52.389Z,99.90
2023-04-28T17:03:41.902Z,99.90
2023-04-28T17:06:28.038Z,99.90
2023-04-28T17:09:13.441Z,99.90
2023-04-28T17:11:59.090Z,99.90
2023-04-28T17:14:44.130Z,99.90
2023-04-28T17:17:29.900Z,99.90
2023-04-28T17:20:20.275Z,99.90
2023-04-28T17:23:06.027Z,99.90
2023-04-28T17:25:51.206Z,99.90
2023-04-28T17:28:36.710Z,99.90
2023-04-28T17:31:22.840Z,99.90
2023-04-28T17:34:08.704Z,99.90
2023-04-28T17:36:55.173Z,99.90
2023-04-28T17:39:40.743Z,99.90
2023-04-28T17:42:27.964Z,99.90
2023-04-28T17:45:13.524Z,99.90
2023-04-28T17:48:00.747Z,99.90
2023-04-28T17:50:46.488Z,99.90
2023-04-28T17:53:31.873Z,99.90
2023-04-28T17:56:17.731Z,99.90
2023-04-28T17:59:03.831Z,99.90
2023-04-28T18:01:48.992Z,99.90
2023-04-28T18:04:34.616Z,99.90
2023-04-28T18:07:19.901Z,99.90
2023-04-28T18:10:05.673Z,99.90
2023-04-28T18:12:53.572Z,99.90
2023-04-28T18:15:38.798Z,99.90
2023-04-28T18:18:24.610Z,99.90
2023-04-28T18:21:11.032Z,99.90
2023-04-28T18:23:56.464Z,99.90
2023-04-28T18:26:42.170Z,99.90
2023-04-28T18:29:27.257Z,99.90
2023-04-28T18:32:14.565Z,99.90
2023-04-28T18:35:00.685Z,99.90
2023-04-28T18:37:46.276Z,99.90
2023-04-28T18:40:37.533Z,99.90
2023-04-28T18:43:23.637Z,99.90
2023-04-28T18:46:09.462Z,99.90
2023-04-28T18:48:54.992Z,99.90
2023-04-28T18:51:40.285Z,99.90
2023-04-28T18:54:26.724Z,99.90
2023-04-28T18:57:12.780Z,99.90
2023-04-28T18:59:59.430Z,99.90
2023-04-28T19:02:45.219Z,99.90
2023-04-28T19:05:30.920Z,99.90
2023-04-28T19:08:16.435Z,99.90
2023-04-28T19:11:02.032Z,99.90
2023-04-28T19:13:47.781Z,99.90
2023-04-28T19:16:33.609Z,99.90
2023-04-28T19:19:19.580Z,99.90
2023-04-28T19:22:05.603Z,99.90
2023-04-28T19:24:50.803Z,99.90
2023-04-28T19:27:38.916Z,99.90
2023-04-28T19:30:24.355Z,99.90
2023-04-28T19:33:09.774Z,99.90
2023-04-28T19:35:55.152Z,99.90
2023-04-28T19:38:40.533Z,99.90
2023-04-28T19:41:26.081Z,99.90
2023-04-28T19:44:11.326Z,99.90
2023-04-28T19:46:56.711Z,99.90
2023-04-28T19:49:42.135Z,99.90
2023-04-28T19:52:28.039Z,99.90
2023-04-28T19:55:18.168Z,99.90
2023-04-28T19:58:04.011Z,99.90
2023-04-28T20:00:49.347Z,99.90
2023-04-28T20:03:35.956Z,99.90
2023-04-28T20:06:21.475Z,99.90
2023-04-28T20:09:06.594Z,99.90
2023-04-28T20:11:52.046Z,99.90
2023-04-28T20:14:37.546Z,99.90
2023-04-28T20:17:22.745Z,99.90
2023-04-28T20:20:08.507Z,99.90
2023-04-28T20:22:53.987Z,99.90
2023-04-28T20:25:39.644Z,99.90
2023-04-28T20:28:24.865Z,99.90
2023-04-28T20:31:10.631Z,99.90
2023-04-28T20:33:56.182Z,99.90
2023-04-28T20:36:42.825Z,99.90
2023-04-28T20:39:28.458Z,99.90
2023-04-28T20:42:13.943Z,99.90
2023-04-28T20:44:59.888Z,99.90
2023-04-28T20:47:45.433Z,99.90
2023-04-28T20:50:33.314Z,99.90
2023-04-28T20:53:18.776Z,99.90
2023-04-28T20:56:04.284Z,99.90
2023-04-28T20:58:49.750Z,99.90
2023-04-28T21:01:35.342Z,99.90
2023-04-28T21:04:21.169Z,99.90
2023-04-28T21:07:06.654Z,99.90
2023-04-28T21:09:52.348Z,99.90
2023-04-28T21:12:38.309Z,99.90
2023-04-28T21:15:24.302Z,99.90
2023-04-28T21:18:09.783Z,99.90
2023-04-28T21:20:56.632Z,99.90
2023-04-28T21:23:42.685Z,99.90
2023-04-28T21:26:27.851Z,99.90
2023-04-28T21:29:13.766Z,99.90
2023-04-28T21:31:58.958Z,99.90
2023-04-28T21:34:48.858Z,99.90
2023-04-28T21:37:34.366Z,99.90
2023-04-28T21:40:19.761Z,99.90
2023-04-28T21:43:05.966Z,99.90
2023-04-28T21:45:52.181Z,99.90
2023-04-28T21:48:38.560Z,99.90
2023-04-28T21:51:24.073Z,99.90
2023-04-28T21:54:09.595Z,99.90
2023-04-28T21:56:54.920Z,99.90
2023-04-28T21:59:40.303Z,99.90
2023-04-28T22:02:25.982Z,99.90
2023-04-28T22:05:11.754Z,99.90
2023-04-28T22:07:57.789Z,99.90
2023-04-28T22:10:45.702Z,99.90
2023-04-28T22:13:30.840Z,99.90
2023-04-28T22:16:16.496Z,99.90
2023-04-28T22:19:02.363Z,99.90
2023-04-28T22:21:48.105Z,99.90
2023-04-28T22:24:33.431Z,99.90
2023-04-28T22:27:18.665Z,99.90
2023-04-28T22:30:04.943Z,99.90
2023-04-28T22:32:50.558Z,99.90
2023-04-28T22:35:36.850Z,99.90
2023-04-28T22:38:22.087Z,99.90
2023-04-28T22:41:07.679Z,99.90
2023-04-28T22:43:53.361Z,99.90
2023-04-28T22:46:38.608Z,99.90
2023-04-28T22:49:28.378Z,99.90
2023-04-28T22:52:13.684Z,99.90
2023-04-28T22:54:59.426Z,99.90
2023-04-28T22:57:44.976Z,99.90
2023-04-28T23:00:30.138Z,99.90
2023-04-28T23:03:16.151Z,99.90
2023-04-28T23:06:01.470Z,99.90
2023-04-28T23:08:46.853Z,99.90
2023-04-28T23:11:32.107Z,99.90
2023-04-28T23:14:17.482Z,99.90
2023-04-28T23:17:02.952Z,99.90
2023-04-28T23:19:48.465Z,99.90
2023-04-28T23:22:33.810Z,99.90
2023-04-28T23:25:19.627Z,99.90
2023-04-28T23:28:05.196Z,99.90
2023-04-28T23:30:50.369Z,99.90
2023-04-28T23:33:35.560Z,99.90
2023-04-28T23:36:20.928Z,99.90
2023-04-28T23:39:06.393Z,99.90
2023-04-28T23:41:51.749Z,99.90
2023-04-28T23:44:37.113Z,99.90
2023-04-28T23:47:22.597Z,99.90
2023-04-28T23:50:09.656Z,99.90
2023-04-28T23:52:55.066Z,99.90
2023-04-28T23:55:40.388Z,99.90
2023-04-28T23:58:26.391Z,99.90
